createdAt,value
2018-12-05T00:00:55.383Z,99.99
2018-12-05T00:01:55.373Z,99.99
2018-12-05T00:02:55.366Z,99.99
2018-12-05T00:03:55.351Z,99.99
2018-12-05T00:04:55.342Z,99.99
2018-12-05T00:05:55.335Z,99.99
2018-12-05T00:06:55.319Z,99.99
2018-12-05T00:07:55.310Z,99.99
2018-12-05T00:08:55.300Z,99.99
2018-12-05T00:09:55.293Z,99.99
2018-12-05T00:10:55.281Z,99.99
2018-12-05T00:11:55.271Z,99.99
2018-12-05T00:12:55.265Z,99.99
2018-12-05T00:13:55.275Z,99.99
2018-12-05T00:14:55.241Z,99.99
2018-12-05T00:15:55.231Z,99.99
2018-12-05T00:16:55.224Z,99.99
2018-12-05T00:17:55.214Z,99.99
2018-12-05T00:18:55.204Z,99.99
2018-12-05T00:19:55.190Z,99.99
2018-12-05T00:20:55.182Z,99.99
2018-12-05T00:21:55.169Z,99.99
2018-12-05T00:22:55.165Z,99.99
2018-12-05T00:23:55.153Z,99.99
2018-12-05T00:24:55.142Z,99.99
2018-12-05T00:25:55.131Z,99.99
2018-12-05T00:26:55.122Z,99.99
2018-12-05T00:27:55.111Z,99.99
2018-12-05T00:28:55.102Z,99.99
2018-12-05T00:29:55.092Z,99.99
2018-12-05T00:30:55.080Z,99.99
2018-12-05T00:31:55.073Z,99.99
2018-12-05T00:32:55.061Z,99.99
2018-12-05T00:33:55.052Z,99.99
2018-12-05T00:34:55.039Z,99.99
2018-12-05T00:35:55.032Z,99.99
2018-12-05T00:36:55.024Z,99.99
2018-12-05T00:37:55.013Z,99.99
2018-12-05T00:38:55.000Z,99.99
2018-12-05T00:39:54.993Z,99.99
2018-12-05T00:40:54.981Z,99.99
2018-12-05T00:41:54.976Z,99.99
2018-12-05T00:42:54.959Z,99.99
2018-12-05T00:43:54.953Z,99.99
2018-12-05T00:44:54.940Z,99.99
2018-12-05T00:45:54.934Z,99.99
2018-12-05T00:46:54.921Z,99.99
2018-12-05T00:47:54.908Z,99.99
2018-12-05T00:48:54.900Z,99.99
2018-12-05T00:49:54.892Z,99.99
2018-12-05T00:50:54.879Z,99.99
2018-12-05T00:51:54.870Z,99.99
2018-12-05T00:52:54.858Z,99.99
2018-12-05T00:53:54.849Z,99.99
2018-12-05T00:54:54.843Z,99.99
2018-12-05T00:55:54.830Z,99.99
2018-12-05T00:56:54.821Z,99.99
2018-12-05T00:57:54.815Z,99.99
2018-12-05T00:58:54.799Z,99.99
2018-12-05T00:59:54.790Z,99.99
2018-12-05T01:00:54.779Z,99.99
2018-12-05T01:01:54.769Z,99.99
2018-12-05T01:02:54.759Z,99.99
2018-12-05T01:03:54.749Z,99.99
2018-12-05T01:04:54.740Z,99.99
2018-12-05T01:05:54.732Z,99.99
2018-12-05T01:06:54.720Z,99.99
2018-12-05T01:07:54.708Z,99.99
2018-12-05T01:08:54.702Z,99.99
2018-12-05T01:09:54.687Z,99.99
2018-12-05T01:10:54.677Z,99.99
2018-12-05T01:11:54.667Z,99.99
2018-12-05T01:12:54.658Z,99.99
2018-12-05T01:13:55.216Z,99.99
2018-12-05T01:14:54.638Z,99.99
2018-12-05T01:15:54.626Z,99.99
2018-12-05T01:16:54.617Z,99.99
2018-12-05T01:17:54.606Z,99.99
2018-12-05T01:18:54.596Z,99.99
2018-12-05T01:19:54.636Z,99.99
2018-12-05T01:20:54.575Z,99.99
2018-12-05T01:21:54.568Z,99.99
2018-12-05T01:22:54.555Z,99.99
2018-12-05T01:23:54.543Z,99.99
2018-12-05T01:24:54.536Z,99.99
2018-12-05T01:25:54.527Z,99.99
2018-12-05T01:26:54.514Z,99.99
2018-12-05T01:27:54.505Z,99.99
2018-12-05T01:28:54.493Z,99.99
2018-12-05T01:29:54.484Z,99.99
2018-12-05T01:30:54.474Z,99.99
2018-12-05T01:31:54.465Z,99.99
2018-12-05T01:32:54.452Z,99.99
2018-12-05T01:33:54.447Z,99.99
2018-12-05T01:34:54.436Z,99.99
2018-12-05T01:35:54.422Z,99.99
2018-12-05T01:36:54.414Z,99.99
2018-12-05T01:37:54.406Z,99.99
2018-12-05T01:38:54.392Z,99.99
2018-12-05T01:39:54.388Z,99.99
2018-12-05T01:40:54.370Z,99.99
2018-12-05T01:41:54.363Z,99.99
2018-12-05T01:42:54.350Z,99.99
2018-12-05T01:43:54.343Z,99.99
2018-12-05T01:44:54.331Z,99.99
2018-12-05T01:45:54.322Z,99.99
2018-12-05T01:46:54.311Z,99.99
2018-12-05T01:47:54.304Z,99.99
2018-12-05T01:48:54.292Z,99.99
2018-12-05T01:49:54.282Z,99.99
2018-12-05T01:50:54.271Z,99.99
2018-12-05T01:51:54.260Z,99.99
2018-12-05T01:52:54.253Z,99.99
2018-12-05T01:53:54.241Z,99.99
2018-12-05T01:54:54.228Z,99.99
2018-12-05T01:55:54.219Z,99.99
2018-12-05T01:56:54.210Z,99.99
2018-12-05T01:57:54.197Z,99.99
2018-12-05T01:58:54.191Z,99.99
2018-12-05T01:59:54.181Z,99.99
2018-12-05T02:00:54.169Z,99.99
2018-12-05T02:01:54.159Z,99.99
2018-12-05T02:02:54.150Z,99.99
2018-12-05T02:03:54.166Z,99.99
2018-12-05T02:04:54.142Z,99.99
2018-12-05T02:05:54.115Z,99.99
2018-12-05T02:06:54.110Z,99.99
2018-12-05T02:07:54.095Z,99.99
2018-12-05T02:08:54.085Z,99.99
2018-12-05T02:09:54.079Z,99.99
2018-12-05T02:10:54.065Z,99.99
2018-12-05T02:11:54.057Z,99.99
2018-12-05T02:12:54.045Z,99.99
2018-12-05T02:13:54.032Z,99.99
2018-12-05T02:14:54.023Z,99.99
2018-12-05T02:15:54.019Z,99.99
2018-12-05T02:16:54.003Z,99.99
2018-12-05T02:17:53.989Z,99.99
2018-12-05T02:18:53.987Z,99.99
2018-12-05T02:19:53.969Z,99.99
2018-12-05T02:20:53.961Z,99.99
2018-12-05T02:21:53.951Z,99.99
2018-12-05T02:22:53.943Z,99.99
2018-12-05T02:23:53.933Z,99.99
2018-12-05T02:24:53.918Z,99.99
2018-12-05T02:25:53.908Z,99.99
2018-12-05T02:26:53.898Z,99.99
2018-12-05T02:27:53.885Z,99.99
2018-12-05T02:28:53.877Z,99.99
2018-12-05T02:29:53.867Z,99.99
2018-12-05T02:30:53.854Z,99.99
2018-12-05T02:31:53.845Z,99.99
2018-12-05T02:32:53.835Z,99.99
2018-12-05T02:33:53.826Z,99.99
2018-12-05T02:34:53.812Z,99.99
2018-12-05T02:35:53.806Z,99.99
2018-12-05T02:36:53.795Z,99.99
2018-12-05T02:37:53.783Z,99.99
2018-12-05T02:38:53.773Z,99.99
2018-12-05T02:39:53.763Z,99.99
2018-12-05T02:40:53.763Z,99.99
2018-12-05T02:41:53.743Z,99.99
2018-12-05T02:42:53.728Z,99.99
2018-12-05T02:43:53.719Z,99.99
2018-12-05T02:44:53.713Z,99.99
2018-12-05T02:45:53.699Z,99.99
2018-12-05T02:46:53.693Z,99.99
2018-12-05T02:47:53.677Z,99.99
2018-12-05T02:48:53.665Z,99.99
2018-12-05T02:49:53.654Z,99.99
2018-12-05T02:50:53.651Z,99.99
2018-12-05T02:51:53.635Z,99.99
2018-12-05T02:52:53.625Z,99.99
2018-12-05T02:53:53.617Z,99.99
2018-12-05T02:54:53.605Z,99.99
2018-12-05T02:55:53.597Z,99.99
2018-12-05T02:56:53.585Z,99.99
2018-12-05T02:57:53.577Z,99.99
2018-12-05T02:58:53.564Z,99.99
2018-12-05T02:59:53.552Z,99.99
2018-12-05T03:00:53.542Z,99.99
2018-12-05T03:01:53.531Z,99.99
2018-12-05T03:02:53.520Z,99.99
2018-12-05T03:03:53.509Z,99.99
2018-12-05T03:04:53.507Z,99.99
2018-12-05T03:05:53.491Z,99.99
2018-12-05T03:06:53.478Z,99.99
2018-12-05T03:07:54.235Z,99.99
2018-12-05T03:08:53.457Z,99.99
2018-12-05T03:09:53.450Z,99.99
2018-12-05T03:10:53.439Z,99.99
2018-12-05T03:11:53.427Z,99.99
2018-12-05T03:12:53.417Z,99.99
2018-12-05T03:13:53.405Z,99.99
2018-12-05T03:14:53.394Z,99.99
2018-12-05T03:15:53.386Z,99.99
2018-12-05T03:16:53.373Z,99.99
2018-12-05T03:17:53.370Z,99.99
2018-12-05T03:18:53.356Z,99.99
2018-12-05T03:19:53.341Z,99.99
2018-12-05T03:20:53.336Z,99.99
2018-12-05T03:21:53.325Z,99.99
2018-12-05T03:22:53.312Z,99.99
2018-12-05T03:23:53.299Z,99.99
2018-12-05T03:24:53.294Z,99.99
2018-12-05T03:25:53.279Z,99.99
2018-12-05T03:26:53.267Z,99.99
2018-12-05T03:27:53.260Z,99.99
2018-12-05T03:28:53.247Z,99.99
2018-12-05T03:29:53.246Z,99.99
2018-12-05T03:30:53.227Z,99.99
2018-12-05T03:31:53.221Z,99.99
2018-12-05T03:32:53.232Z,99.99
2018-12-05T03:33:53.199Z,99.99
2018-12-05T03:34:53.185Z,99.99
2018-12-05T03:35:53.173Z,99.99
2018-12-05T03:36:53.163Z,99.99
2018-12-05T03:37:53.153Z,99.99
2018-12-05T03:38:53.140Z,99.99
2018-12-05T03:39:53.137Z,99.99
2018-12-05T03:40:53.123Z,99.99
2018-12-05T03:41:53.109Z,99.99
2018-12-05T03:42:53.097Z,99.99
2018-12-05T03:43:53.089Z,99.99
2018-12-05T03:44:53.078Z,99.99
2018-12-05T03:45:53.067Z,99.99
2018-12-05T03:46:53.059Z,99.99
2018-12-05T03:47:53.046Z,99.99
2018-12-05T03:48:53.034Z,99.99
2018-12-05T03:49:53.025Z,99.99
2018-12-05T03:50:53.015Z,99.99
2018-12-05T03:51:53.004Z,99.99
2018-12-05T03:52:52.998Z,99.99
2018-12-05T03:53:52.986Z,99.99
2018-12-05T03:54:52.976Z,99.99
2018-12-05T03:55:52.962Z,99.99
2018-12-05T03:56:52.951Z,99.99
2018-12-05T03:57:52.945Z,99.99
2018-12-05T03:58:52.935Z,99.99
2018-12-05T03:59:52.920Z,99.99
2018-12-05T04:00:52.909Z,99.99
2018-12-05T04:01:52.896Z,99.99
2018-12-05T04:02:52.889Z,99.99
2018-12-05T04:03:52.878Z,99.99
2018-12-05T04:04:52.871Z,99.99
2018-12-05T04:05:52.857Z,99.99
2018-12-05T04:06:52.843Z,99.99
2018-12-05T04:07:52.839Z,99.99
2018-12-05T04:08:52.825Z,99.99
2018-12-05T04:09:52.817Z,99.99
2018-12-05T04:10:52.801Z,99.99
2018-12-05T04:11:52.794Z,99.99
2018-12-05T04:12:52.782Z,99.99
2018-12-05T04:13:52.773Z,99.99
2018-12-05T04:14:52.759Z,99.99
2018-12-05T04:15:52.740Z,99.99
2018-12-05T04:16:52.740Z,99.99
2018-12-05T04:17:52.723Z,99.99
2018-12-05T04:18:52.712Z,99.99
2018-12-05T04:19:52.704Z,99.99
2018-12-05T04:20:52.693Z,99.99
2018-12-05T04:21:52.683Z,99.99
2018-12-05T04:22:52.671Z,99.99
2018-12-05T04:23:52.659Z,99.99
2018-12-05T04:24:52.658Z,99.99
2018-12-05T04:25:52.654Z,99.99
2018-12-05T04:26:52.623Z,99.99
2018-12-05T04:27:52.616Z,99.99
2018-12-05T04:28:52.611Z,99.99
2018-12-05T04:29:52.594Z,99.99
2018-12-05T04:30:52.583Z,99.99
2018-12-05T04:31:52.574Z,99.99
2018-12-05T04:32:52.561Z,99.99
2018-12-05T04:33:52.553Z,99.99
2018-12-05T04:34:52.549Z,99.99
2018-12-05T04:35:52.529Z,99.99
2018-12-05T04:36:52.520Z,99.99
2018-12-05T04:37:52.779Z,99.99
2018-12-05T04:38:52.497Z,99.99
2018-12-05T04:39:52.487Z,99.99
2018-12-05T04:40:52.481Z,99.99
2018-12-05T04:41:52.466Z,99.99
2018-12-05T04:42:52.457Z,99.99
2018-12-05T04:43:52.449Z,99.99
2018-12-05T04:44:52.431Z,99.99
2018-12-05T04:45:52.427Z,99.99
2018-12-05T04:46:52.413Z,99.99
2018-12-05T04:47:52.403Z,99.99
2018-12-05T04:48:52.392Z,99.99
2018-12-05T04:49:52.384Z,99.99
2018-12-05T04:50:52.370Z,99.99
2018-12-05T04:51:52.363Z,99.99
2018-12-05T04:52:52.347Z,99.99
2018-12-05T04:53:52.345Z,99.99
2018-12-05T04:54:52.325Z,99.99
2018-12-05T04:55:52.319Z,99.99
2018-12-05T04:56:52.301Z,99.99
2018-12-05T04:57:52.294Z,99.99
2018-12-05T04:58:52.289Z,99.99
2018-12-05T04:59:52.277Z,99.99
2018-12-05T05:00:52.264Z,99.99
2018-12-05T05:01:52.253Z,99.99
2018-12-05T05:02:52.238Z,99.99
2018-12-05T05:03:52.230Z,99.99
2018-12-05T05:04:52.226Z,99.99
2018-12-05T05:05:52.213Z,99.99
2018-12-05T05:06:52.195Z,99.99
2018-12-05T05:07:52.190Z,99.99
2018-12-05T05:08:52.174Z,99.99
2018-12-05T05:09:52.170Z,99.99
2018-12-05T05:10:52.156Z,99.99
2018-12-05T05:11:52.143Z,99.99
2018-12-05T05:12:52.156Z,99.99
2018-12-05T05:13:52.119Z,99.99
2018-12-05T05:14:52.112Z,99.99
2018-12-05T05:15:52.100Z,99.99
2018-12-05T05:16:52.093Z,99.99
2018-12-05T05:17:52.078Z,99.99
2018-12-05T05:18:52.071Z,99.99
2018-12-05T05:19:52.053Z,99.99
2018-12-05T05:20:52.043Z,99.99
2018-12-05T05:21:52.041Z,99.99
2018-12-05T05:22:52.029Z,99.99
2018-12-05T05:23:52.011Z,99.99
2018-12-05T05:24:52.009Z,99.99
2018-12-05T05:25:51.998Z,99.99
2018-12-05T05:26:51.983Z,99.99
2018-12-05T05:27:51.969Z,99.99
2018-12-05T05:28:51.956Z,99.99
2018-12-05T05:29:51.946Z,99.99
2018-12-05T05:30:51.937Z,99.99
2018-12-05T05:31:51.927Z,99.99
2018-12-05T05:32:51.913Z,99.99
2018-12-05T05:33:51.905Z,99.99
2018-12-05T05:34:51.896Z,99.99
2018-12-05T05:35:51.881Z,99.99
2018-12-05T05:36:51.871Z,99.99
2018-12-05T05:37:51.863Z,99.99
2018-12-05T05:38:51.849Z,99.99
2018-12-05T05:39:51.837Z,99.99
2018-12-05T05:40:51.833Z,99.99
2018-12-05T05:41:51.816Z,99.99
2018-12-05T05:42:51.806Z,99.99
2018-12-05T05:43:51.799Z,99.99
2018-12-05T05:44:51.785Z,99.99
2018-12-05T05:45:51.774Z,99.99
2018-12-05T05:46:51.766Z,99.99
2018-12-05T05:47:51.749Z,99.99
2018-12-05T05:48:51.741Z,99.99
2018-12-05T05:49:51.733Z,99.99
2018-12-05T05:50:51.718Z,99.99
2018-12-05T05:51:51.708Z,99.99
2018-12-05T05:52:51.706Z,99.99
2018-12-05T05:53:51.686Z,99.99
2018-12-05T05:54:51.673Z,99.99
2018-12-05T05:55:51.667Z,99.99
2018-12-05T05:56:51.655Z,99.99
2018-12-05T05:57:51.641Z,99.99
2018-12-05T05:58:51.633Z,99.99
2018-12-05T05:59:51.624Z,99.99
2018-12-05T06:00:51.609Z,99.99
2018-12-05T06:01:51.603Z,99.99
2018-12-05T06:02:51.588Z,99.99
2018-12-05T06:03:51.580Z,99.99
2018-12-05T06:04:51.570Z,99.99
2018-12-05T06:05:51.554Z,99.99
2018-12-05T06:06:51.546Z,99.99
2018-12-05T06:07:51.540Z,99.99
2018-12-05T06:08:51.522Z,99.99
2018-12-05T06:09:51.517Z,99.99
2018-12-05T06:10:51.506Z,99.99
2018-12-05T06:11:51.487Z,99.99
2018-12-05T06:12:51.481Z,99.99
2018-12-05T06:13:51.477Z,99.99
2018-12-05T06:14:51.458Z,99.99
2018-12-05T06:15:51.447Z,99.99
2018-12-05T06:16:51.435Z,99.99
2018-12-05T06:17:51.427Z,99.99
2018-12-05T06:18:51.418Z,99.99
2018-12-05T06:19:51.411Z,99.99
2018-12-05T06:20:52.261Z,99.99
2018-12-05T06:21:51.385Z,99.99
2018-12-05T06:22:51.377Z,99.99
2018-12-05T06:23:51.357Z,99.99
2018-12-05T06:24:51.352Z,99.99
2018-12-05T06:25:51.345Z,99.99
2018-12-05T06:26:51.330Z,99.99
2018-12-05T06:27:51.317Z,99.99
2018-12-05T06:28:51.305Z,99.99
2018-12-05T06:29:51.293Z,99.99
2018-12-05T06:30:51.286Z,99.99
2018-12-05T06:31:51.276Z,99.99
2018-12-05T06:32:51.261Z,99.99
2018-12-05T06:33:51.252Z,99.99
2018-12-05T06:34:51.245Z,99.99
2018-12-05T06:35:51.228Z,99.99
2018-12-05T06:36:51.217Z,99.99
2018-12-05T06:37:51.212Z,99.99
2018-12-05T06:38:51.198Z,99.99
2018-12-05T06:39:51.180Z,99.99
2018-12-05T06:40:51.169Z,99.99
2018-12-05T06:41:51.163Z,99.99
2018-12-05T06:42:51.154Z,99.99
2018-12-05T06:43:51.146Z,99.99
2018-12-05T06:44:51.129Z,99.99
2018-12-05T06:45:51.766Z,99.99
2018-12-05T06:46:51.116Z,99.99
2018-12-05T06:47:51.096Z,99.99
2018-12-05T06:48:51.090Z,99.99
2018-12-05T06:49:51.081Z,99.99
2018-12-05T06:50:51.061Z,99.99
2018-12-05T06:51:51.048Z,99.99
2018-12-05T06:52:51.039Z,99.99
2018-12-05T06:53:51.030Z,99.99
2018-12-05T06:54:51.106Z,99.99
2018-12-05T06:55:51.009Z,99.99
2018-12-05T06:56:50.998Z,99.99
2018-12-05T06:57:50.987Z,99.99
2018-12-05T06:58:50.973Z,99.99
2018-12-05T06:59:50.967Z,99.99
2018-12-05T07:00:50.957Z,99.99
2018-12-05T07:01:50.943Z,99.99
2018-12-05T07:02:50.927Z,99.99
2018-12-05T07:03:50.921Z,99.99
2018-12-05T07:04:50.912Z,99.99
2018-12-05T07:05:50.901Z,99.99
2018-12-05T07:06:50.885Z,99.99
2018-12-05T07:07:50.873Z,99.99
2018-12-05T07:08:50.865Z,99.99
2018-12-05T07:09:50.853Z,99.99
2018-12-05T07:10:50.842Z,99.99
2018-12-05T07:11:50.829Z,99.99
2018-12-05T07:12:50.821Z,99.99
2018-12-05T07:13:50.808Z,99.99
2018-12-05T07:14:50.801Z,99.99
2018-12-05T07:15:50.787Z,99.99
2018-12-05T07:16:50.775Z,99.99
2018-12-05T07:17:50.763Z,99.99
2018-12-05T07:18:50.752Z,99.99
2018-12-05T07:19:50.744Z,99.99
2018-12-05T07:20:50.787Z,99.99
2018-12-05T07:21:50.721Z,99.99
2018-12-05T07:22:50.715Z,99.99
2018-12-05T07:23:50.699Z,99.99
2018-12-05T07:24:50.694Z,99.99
2018-12-05T07:25:50.674Z,99.99
2018-12-05T07:26:50.664Z,99.99
2018-12-05T07:27:50.656Z,99.99
2018-12-05T07:28:50.645Z,99.99
2018-12-05T07:29:50.633Z,99.99
2018-12-05T07:30:50.625Z,99.99
2018-12-05T07:31:50.612Z,99.99
2018-12-05T07:32:50.601Z,99.99
2018-12-05T07:33:51.274Z,99.99
2018-12-05T07:34:50.578Z,99.99
2018-12-05T07:35:50.567Z,99.99
2018-12-05T07:36:50.556Z,99.99
2018-12-05T07:37:50.542Z,99.99
2018-12-05T07:38:50.530Z,99.99
2018-12-05T07:39:50.522Z,99.99
2018-12-05T07:40:50.512Z,99.99
2018-12-05T07:41:50.501Z,99.99
2018-12-05T07:42:50.493Z,99.99
2018-12-05T07:43:50.475Z,99.99
2018-12-05T07:44:50.465Z,99.99
2018-12-05T07:45:50.461Z,99.99
2018-12-05T07:46:50.445Z,99.99
2018-12-05T07:47:50.435Z,99.99
2018-12-05T07:48:50.425Z,99.99
2018-12-05T07:49:50.413Z,99.99
2018-12-05T07:50:50.404Z,99.99
2018-12-05T07:51:50.393Z,99.99
2018-12-05T07:52:50.385Z,99.99
2018-12-05T07:53:50.371Z,99.99
2018-12-05T07:54:50.363Z,99.99
2018-12-05T07:55:50.345Z,99.99
2018-12-05T07:56:50.339Z,99.99
2018-12-05T07:57:50.326Z,99.99
2018-12-05T07:58:50.314Z,99.99
2018-12-05T07:59:50.304Z,99.99
2018-12-05T08:00:50.294Z,99.99
2018-12-05T08:01:50.282Z,99.99
2018-12-05T08:02:50.270Z,99.99
2018-12-05T08:03:50.261Z,99.99
2018-12-05T08:04:50.249Z,99.99
2018-12-05T08:05:50.240Z,99.99
2018-12-05T08:06:50.229Z,99.99
2018-12-05T08:07:50.215Z,99.99
2018-12-05T08:08:50.213Z,99.99
2018-12-05T08:09:50.197Z,99.99
2018-12-05T08:10:50.181Z,99.99
2018-12-05T08:11:50.172Z,99.99
2018-12-05T08:12:50.166Z,99.99
2018-12-05T08:13:50.193Z,99.99
2018-12-05T08:14:50.140Z,99.99
2018-12-05T08:15:50.140Z,99.99
2018-12-05T08:16:50.118Z,99.99
2018-12-05T08:17:50.110Z,99.99
2018-12-05T08:18:50.098Z,99.99
2018-12-05T08:19:50.109Z,99.99
2018-12-05T08:20:50.078Z,99.99
2018-12-05T08:21:50.067Z,99.99
2018-12-05T08:22:50.051Z,99.99
2018-12-05T08:23:50.046Z,99.99
2018-12-05T08:24:50.038Z,99.99
2018-12-05T08:25:50.028Z,99.99
2018-12-05T08:26:50.013Z,99.99
2018-12-05T08:27:50.002Z,99.99
2018-12-05T08:28:49.991Z,99.99
2018-12-05T08:29:49.989Z,99.99
2018-12-05T08:30:49.970Z,99.99
2018-12-05T08:31:49.961Z,99.99
2018-12-05T08:32:49.953Z,99.99
2018-12-05T08:33:49.940Z,99.99
2018-12-05T08:34:49.929Z,99.99
2018-12-05T08:35:49.922Z,99.99
2018-12-05T08:36:49.905Z,99.99
2018-12-05T08:37:49.900Z,99.99
2018-12-05T08:38:49.889Z,99.99
2018-12-05T08:39:49.881Z,99.99
2018-12-05T08:40:49.864Z,99.99
2018-12-05T08:41:49.857Z,99.99
2018-12-05T08:42:49.842Z,99.99
2018-12-05T08:43:49.838Z,99.99
2018-12-05T08:44:49.826Z,99.99
2018-12-05T08:45:49.815Z,99.99
2018-12-05T08:46:49.802Z,99.99
2018-12-05T08:47:49.795Z,99.99
2018-12-05T08:48:49.786Z,99.99
2018-12-05T08:49:49.780Z,99.99
2018-12-05T08:50:49.761Z,99.99
2018-12-05T08:51:49.752Z,99.99
2018-12-05T08:52:49.742Z,99.99
2018-12-05T08:53:49.732Z,99.99
2018-12-05T08:54:49.721Z,99.99
2018-12-05T08:55:49.713Z,99.99
2018-12-05T08:56:49.702Z,99.99
2018-12-05T08:57:49.696Z,99.99
2018-12-05T08:58:49.682Z,99.99
2018-12-05T08:59:49.672Z,99.99
2018-12-05T09:00:49.662Z,99.99
2018-12-05T09:01:49.650Z,99.99
2018-12-05T09:02:49.638Z,99.99
2018-12-05T09:03:49.632Z,99.99
2018-12-05T09:04:49.618Z,99.99
2018-12-05T09:05:49.610Z,99.99
2018-12-05T09:06:49.600Z,99.99
2018-12-05T09:07:49.587Z,99.99
2018-12-05T09:08:49.573Z,99.99
2018-12-05T09:09:49.571Z,99.99
2018-12-05T09:10:49.557Z,99.99
2018-12-05T09:11:49.547Z,99.99
2018-12-05T09:12:49.538Z,99.99
2018-12-05T09:13:49.528Z,99.99
2018-12-05T09:14:49.517Z,99.99
2018-12-05T09:15:49.508Z,99.99
2018-12-05T09:16:49.498Z,99.99
2018-12-05T09:17:49.493Z,99.99
2018-12-05T09:18:49.475Z,99.99
2018-12-05T09:19:49.468Z,99.99
2018-12-05T09:20:49.461Z,99.99
2018-12-05T09:21:49.444Z,99.99
2018-12-05T09:22:49.434Z,99.99
2018-12-05T09:23:49.427Z,99.99
2018-12-05T09:24:49.415Z,99.99
2018-12-05T09:25:49.408Z,99.99
2018-12-05T09:26:49.395Z,99.99
2018-12-05T09:27:49.391Z,99.99
2018-12-05T09:28:49.376Z,99.99
2018-12-05T09:29:49.364Z,99.99
2018-12-05T09:30:49.356Z,99.99
2018-12-05T09:31:49.349Z,99.99
2018-12-05T09:32:49.340Z,99.99
2018-12-05T09:33:49.332Z,99.99
2018-12-05T09:34:49.315Z,99.99
2018-12-05T09:35:49.307Z,99.99
2018-12-05T09:36:49.305Z,99.99
2018-12-05T09:37:49.288Z,99.99
2018-12-05T09:38:49.276Z,99.99
2018-12-05T09:39:49.273Z,99.99
2018-12-05T09:40:49.256Z,99.99
2018-12-05T09:41:49.256Z,99.99
2018-12-05T09:42:49.238Z,99.99
2018-12-05T09:43:49.224Z,99.99
2018-12-05T09:44:49.217Z,99.99
2018-12-05T09:45:49.206Z,99.99
2018-12-05T09:46:49.193Z,99.99
2018-12-05T09:47:49.190Z,99.99
2018-12-05T09:48:49.180Z,99.99
2018-12-05T09:49:49.176Z,99.99
2018-12-05T09:50:49.162Z,99.99
2018-12-05T09:51:49.146Z,99.99
2018-12-05T09:52:49.152Z,99.99
2018-12-05T09:53:49.136Z,99.99
2018-12-05T09:54:49.127Z,99.99
2018-12-05T09:55:49.113Z,99.99
2018-12-05T09:56:49.108Z,99.99
2018-12-05T09:57:49.094Z,99.99
2018-12-05T09:58:49.081Z,99.99
2018-12-05T09:59:49.080Z,99.99
2018-12-05T10:00:49.068Z,99.99
2018-12-05T10:01:49.057Z,99.99
2018-12-05T10:02:49.048Z,99.99
2018-12-05T10:03:49.037Z,99.99
2018-12-05T10:04:49.022Z,99.99
2018-12-05T10:05:49.023Z,99.99
2018-12-05T10:06:49.006Z,99.99
2018-12-05T10:07:48.996Z,99.99
2018-12-05T10:08:48.989Z,99.99
2018-12-05T10:09:48.979Z,99.99
2018-12-05T10:10:48.969Z,99.99
2018-12-05T10:11:48.962Z,99.99
2018-12-05T10:12:48.950Z,99.99
2018-12-05T10:13:48.944Z,99.99
2018-12-05T10:14:48.928Z,99.99
2018-12-05T10:15:48.923Z,99.99
2018-12-05T10:16:48.914Z,99.99
2018-12-05T10:17:48.903Z,99.99
2018-12-05T10:18:48.898Z,99.99
2018-12-05T10:19:48.883Z,99.99
2018-12-05T10:20:55.816Z,99.99
2018-12-05T10:21:48.866Z,99.99
2018-12-05T10:22:48.859Z,99.99
2018-12-05T10:23:48.864Z,99.99
2018-12-05T10:24:48.835Z,99.99
2018-12-05T10:25:48.828Z,99.99
2018-12-05T10:26:48.819Z,99.99
2018-12-05T10:27:48.812Z,99.99
2018-12-05T10:28:48.806Z,99.99
2018-12-05T10:29:48.792Z,99.99
2018-12-05T10:30:48.782Z,99.99
2018-12-05T10:31:48.773Z,99.99
2018-12-05T10:32:48.765Z,99.99
2018-12-05T10:33:48.761Z,99.99
2018-12-05T10:34:48.744Z,99.99
2018-12-05T10:35:48.736Z,99.99
2018-12-05T10:36:48.728Z,99.99
2018-12-05T10:37:48.717Z,99.99
2018-12-05T10:38:48.710Z,99.99
2018-12-05T10:39:48.701Z,99.99
2018-12-05T10:40:48.696Z,99.99
2018-12-05T10:41:48.684Z,99.99
2018-12-05T10:42:48.673Z,99.99
2018-12-05T10:43:48.663Z,99.99
2018-12-05T10:44:48.659Z,99.99
2018-12-05T10:45:48.647Z,99.99
2018-12-05T10:46:48.637Z,99.99
2018-12-05T10:47:48.629Z,99.99
2018-12-05T10:48:48.623Z,99.99
2018-12-05T10:49:48.614Z,99.99
2018-12-05T10:50:48.600Z,99.99
2018-12-05T10:51:48.592Z,99.99
2018-12-05T10:52:48.584Z,99.99
2018-12-05T10:53:48.583Z,99.99
2018-12-05T10:54:48.561Z,99.99
2018-12-05T10:55:48.557Z,99.99
2018-12-05T10:56:48.548Z,99.99
2018-12-05T10:57:48.541Z,99.99
2018-12-05T10:58:48.531Z,99.99
2018-12-05T10:59:48.527Z,99.99
2018-12-05T11:00:48.512Z,99.99
2018-12-05T11:01:48.503Z,99.99
2018-12-05T11:02:48.494Z,99.99
2018-12-05T11:03:48.486Z,99.99
2018-12-05T11:04:48.478Z,99.99
2018-12-05T11:05:48.473Z,99.99
2018-12-05T11:06:48.457Z,99.99
2018-12-05T11:07:48.448Z,99.99
2018-12-05T11:08:48.442Z,99.99
2018-12-05T11:09:48.432Z,99.99
2018-12-05T11:10:48.426Z,99.99
2018-12-05T11:11:48.416Z,99.99
2018-12-05T11:12:48.410Z,99.99
2018-12-05T11:13:48.398Z,99.99
2018-12-05T11:14:48.387Z,99.99
2018-12-05T11:15:48.385Z,99.99
2018-12-05T11:16:48.372Z,99.99
2018-12-05T11:17:48.365Z,99.99
2018-12-05T11:18:48.438Z,99.99
2018-12-05T11:19:48.347Z,99.99
2018-12-05T11:20:48.338Z,99.99
2018-12-05T11:21:49.832Z,99.58
2018-12-05T11:22:48.321Z,99.97
2018-12-05T11:23:48.311Z,99.99
2018-12-05T11:24:48.305Z,99.99
2018-12-05T11:25:48.293Z,99.99
2018-12-05T11:26:48.286Z,99.77
2018-12-05T11:27:48.282Z,99.68
2018-12-05T11:28:48.269Z,99.40
2018-12-05T11:29:48.266Z,99.21
2018-12-05T11:30:48.253Z,98.64
2018-12-05T11:31:48.246Z,97.78
2018-12-05T11:32:48.240Z,98.07
2018-12-05T11:33:48.233Z,98.35
2018-12-05T11:34:48.218Z,98.07
2018-12-05T11:35:48.211Z,98.16
2018-12-05T11:36:48.209Z,97.97
2018-12-05T11:37:48.191Z,97.97
2018-12-05T11:38:48.186Z,97.97
2018-12-05T11:39:48.177Z,97.50
2018-12-05T11:40:48.170Z,97.07
2018-12-05T11:41:48.160Z,98.07
2018-12-05T11:42:48.153Z,97.60
2018-12-05T11:43:48.146Z,96.45
2018-12-05T11:44:48.133Z,96.03
2018-12-05T11:45:48.207Z,96.55
2018-12-05T11:46:48.639Z,96.08
2018-12-05T11:47:48.111Z,95.94
2018-12-05T11:48:48.106Z,95.70
2018-12-05T11:49:48.095Z,94.74
2018-12-05T11:50:48.088Z,94.32
2018-12-05T11:51:48.080Z,94.32
2018-12-05T11:52:48.072Z,93.56
2018-12-05T11:53:48.060Z,93.46
2018-12-05T11:54:48.053Z,93.32
2018-12-05T11:55:48.046Z,93.75
2018-12-05T11:56:48.037Z,94.51
2018-12-05T11:57:48.031Z,93.18
2018-12-05T11:58:48.022Z,93.99
2018-12-05T11:59:48.016Z,94.23
2018-12-05T12:00:48.006Z,94.13
2018-12-05T12:01:48.000Z,94.42
2018-12-05T12:02:47.987Z,94.23
2018-12-05T12:03:47.980Z,94.46
2018-12-05T12:04:47.973Z,94.32
2018-12-05T12:05:47.964Z,94.08
2018-12-05T12:06:47.956Z,94.37
2018-12-05T12:07:47.949Z,94.32
2018-12-05T12:08:47.944Z,94.08
2018-12-05T12:09:47.937Z,93.65
2018-12-05T12:10:47.925Z,93.56
2018-12-05T12:11:47.915Z,92.66
2018-12-05T12:12:47.907Z,91.47
2018-12-05T12:13:47.900Z,90.99
2018-12-05T12:14:47.891Z,90.95
2018-12-05T12:15:47.889Z,90.99
2018-12-05T12:16:47.878Z,90.80
2018-12-05T12:17:47.871Z,90.42
2018-12-05T12:18:47.859Z,90.42
2018-12-05T12:19:47.858Z,90.42
2018-12-05T12:20:47.843Z,90.42
2018-12-05T12:21:47.841Z,90.23
2018-12-05T12:22:47.827Z,90.05
2018-12-05T12:23:47.905Z,90.14
2018-12-05T12:24:47.811Z,90.80
2018-12-05T12:25:47.806Z,90.99
2018-12-05T12:26:47.804Z,90.90
2018-12-05T12:27:47.789Z,90.99
2018-12-05T12:28:47.782Z,90.80
2018-12-05T12:29:47.779Z,90.61
2018-12-05T12:30:47.762Z,90.99
2018-12-05T12:31:47.759Z,90.23
2018-12-05T12:32:47.749Z,90.05
2018-12-05T12:33:47.740Z,89.86
2018-12-05T12:34:47.732Z,90.33
2018-12-05T12:35:47.725Z,90.33
2018-12-05T12:36:47.715Z,89.38
2018-12-05T12:37:47.713Z,89.38
2018-12-05T12:38:47.700Z,90.23
2018-12-05T12:39:47.694Z,89.57
2018-12-05T12:40:47.683Z,89.67
2018-12-05T12:41:47.676Z,89.19
2018-12-05T12:42:47.669Z,88.15
2018-12-05T12:43:47.660Z,89.09
2018-12-05T12:44:47.657Z,88.90
2018-12-05T12:45:47.647Z,88.90
2018-12-05T12:46:47.634Z,88.34
2018-12-05T12:47:47.626Z,88.90
2018-12-05T12:48:47.623Z,88.62
2018-12-05T12:49:47.612Z,88.81
2018-12-05T12:50:47.605Z,87.86
2018-12-05T12:51:47.595Z,87.76
2018-12-05T12:52:47.588Z,87.48